createdAt,value
2017-06-14T00:00:19.894Z,0
2017-06-14T00:01:21.141Z,0
2017-06-14T00:02:22.369Z,0
2017-06-14T00:03:23.603Z,0
2017-06-14T00:04:24.851Z,0
2017-06-14T00:05:26.088Z,0
2017-06-14T00:06:27.343Z,0
2017-06-14T00:07:28.690Z,0
2017-06-14T00:08:30.012Z,0
2017-06-14T00:09:31.406Z,0
2017-06-14T00:10:32.657Z,0
2017-06-14T00:11:33.912Z,0
2017-06-14T00:12:35.271Z,0
2017-06-14T00:13:36.536Z,0
2017-06-14T00:14:37.859Z,0
2017-06-14T00:15:39.145Z,0
2017-06-14T00:16:40.363Z,0
2017-06-14T00:17:41.633Z,0
2017-06-14T00:18:42.877Z,0
2017-06-14T00:19:44.172Z,0
2017-06-14T00:20:45.419Z,0
2017-06-14T00:21:46.655Z,0
2017-06-14T00:22:47.918Z,0
2017-06-14T00:23:49.229Z,0
2017-06-14T00:24:50.600Z,0
2017-06-14T00:25:51.797Z,0
2017-06-14T00:26:53.034Z,0
2017-06-14T00:27:54.293Z,0
2017-06-14T00:28:55.554Z,0
2017-06-14T00:29:56.799Z,0
2017-06-14T00:30:58.050Z,0
2017-06-14T00:31:59.401Z,0
2017-06-14T00:33:00.684Z,0
2017-06-14T00:34:01.889Z,0
2017-06-14T00:35:03.280Z,0
2017-06-14T00:36:04.469Z,0
2017-06-14T00:37:05.698Z,0
2017-06-14T00:38:06.960Z,0
2017-06-14T00:39:08.188Z,0
2017-06-14T00:40:09.513Z,0
2017-06-14T00:41:10.775Z,0
2017-06-14T00:42:12.013Z,0
2017-06-14T00:43:13.260Z,0
2017-06-14T00:44:14.590Z,0
2017-06-14T00:45:15.850Z,0
2017-06-14T00:46:17.183Z,0
2017-06-14T00:47:18.454Z,0
2017-06-14T00:48:19.676Z,0
2017-06-14T00:49:20.934Z,0
2017-06-14T00:50:22.167Z,0
2017-06-14T00:51:23.407Z,0
2017-06-14T00:52:24.649Z,0
2017-06-14T00:53:25.882Z,0
2017-06-14T00:54:27.170Z,0
2017-06-14T00:55:28.391Z,0
2017-06-14T00:56:29.632Z,0
2017-06-14T00:57:30.875Z,0
2017-06-14T00:58:32.230Z,0
2017-06-14T00:59:33.503Z,0
2017-06-14T01:00:34.746Z,0
2017-06-14T01:01:35.983Z,0
2017-06-14T01:02:37.254Z,0
2017-06-14T01:03:38.497Z,0
2017-06-14T01:04:39.744Z,0
2017-06-14T01:05:40.981Z,0
2017-06-14T01:06:42.230Z,0
2017-06-14T01:07:43.487Z,0
2017-06-14T01:08:44.738Z,0
2017-06-14T01:09:46.096Z,0
2017-06-14T01:10:47.348Z,0
2017-06-14T01:11:48.593Z,0
2017-06-14T01:12:49.838Z,0
2017-06-14T01:13:51.089Z,0
2017-06-14T01:14:52.353Z,0
2017-06-14T01:15:53.583Z,0
2017-06-14T01:16:54.821Z,0
2017-06-14T01:17:56.062Z,0
2017-06-14T01:18:57.329Z,0
2017-06-14T01:19:58.580Z,0
2017-06-14T01:20:59.817Z,0
2017-06-14T01:22:01.061Z,0
2017-06-14T01:23:02.298Z,0
2017-06-14T01:24:03.542Z,0
2017-06-14T01:25:04.792Z,0
2017-06-14T01:26:06.029Z,0
2017-06-14T01:27:07.265Z,0
2017-06-14T01:28:08.530Z,0
2017-06-14T01:29:09.773Z,0
2017-06-14T01:30:11.051Z,0
2017-06-14T01:31:12.302Z,0
2017-06-14T01:32:13.577Z,0
2017-06-14T01:33:14.827Z,0
2017-06-14T01:34:16.114Z,0
2017-06-14T01:35:17.428Z,0
2017-06-14T01:36:18.698Z,0
2017-06-14T01:37:20.051Z,0
2017-06-14T01:38:21.298Z,0
2017-06-14T01:39:22.553Z,0
2017-06-14T01:40:23.844Z,0
2017-06-14T01:41:25.082Z,0
2017-06-14T01:42:26.320Z,0
2017-06-14T01:43:27.563Z,0
2017-06-14T01:44:28.806Z,0
2017-06-14T01:45:30.067Z,0
2017-06-14T01:46:31.369Z,0
2017-06-14T01:47:32.714Z,0
2017-06-14T01:48:33.964Z,0
2017-06-14T01:49:35.245Z,0
2017-06-14T01:50:36.495Z,0
2017-06-14T01:51:37.759Z,0
2017-06-14T01:52:38.997Z,0
2017-06-14T01:53:40.234Z,0
2017-06-14T01:54:41.497Z,0
2017-06-14T01:55:42.770Z,0
2017-06-14T01:56:44.016Z,0
2017-06-14T01:57:45.266Z,0
2017-06-14T01:58:46.507Z,0
2017-06-14T01:59:47.846Z,0
2017-06-14T02:00:49.088Z,0
2017-06-14T02:01:50.372Z,0
2017-06-14T02:02:51.617Z,0
2017-06-14T02:03:52.846Z,0
2017-06-14T02:04:54.085Z,0
2017-06-14T02:05:55.343Z,0
2017-06-14T02:06:56.605Z,0
2017-06-14T02:07:57.842Z,0
2017-06-14T02:08:59.081Z,0
2017-06-14T02:10:00.320Z,0
2017-06-14T02:11:01.577Z,0
2017-06-14T02:12:02.826Z,0
2017-06-14T02:13:04.078Z,0
2017-06-14T02:14:05.321Z,0
2017-06-14T02:15:06.559Z,0
2017-06-14T02:16:07.812Z,0
2017-06-14T02:17:09.056Z,0
2017-06-14T02:18:10.296Z,0
2017-06-14T02:19:11.539Z,0
2017-06-14T02:20:12.798Z,0
2017-06-14T02:21:14.122Z,0
2017-06-14T02:22:15.434Z,0
2017-06-14T02:23:16.657Z,0
2017-06-14T02:24:17.888Z,0
2017-06-14T02:25:19.284Z,0
2017-06-14T02:26:20.559Z,0
2017-06-14T02:27:21.896Z,0
2017-06-14T02:28:23.088Z,0
2017-06-14T02:29:24.324Z,0
2017-06-14T02:30:25.560Z,0
2017-06-14T02:31:26.873Z,0
2017-06-14T02:32:28.114Z,0
2017-06-14T02:33:29.361Z,0
2017-06-14T02:34:30.601Z,0
2017-06-14T02:35:31.854Z,0
2017-06-14T02:36:33.123Z,0
2017-06-14T02:37:34.370Z,0
2017-06-14T02:38:35.666Z,0
2017-06-14T02:39:36.927Z,0
2017-06-14T02:40:38.172Z,0
2017-06-14T02:41:39.452Z,0
2017-06-14T02:42:40.713Z,0
2017-06-14T02:43:41.945Z,0
2017-06-14T02:44:43.213Z,0
2017-06-14T02:45:44.432Z,0
2017-06-14T02:46:45.680Z,0
2017-06-14T02:47:46.920Z,0
2017-06-14T02:48:48.186Z,5
2017-06-14T02:49:49.419Z,5
2017-06-14T02:50:50.784Z,5
2017-06-14T02:51:52.032Z,5
2017-06-14T02:52:53.277Z,5
2017-06-14T02:53:54.539Z,5
2017-06-14T02:54:55.781Z,5
2017-06-14T02:55:57.052Z,5
2017-06-14T02:56:58.313Z,5
2017-06-14T02:57:59.580Z,5
2017-06-14T02:59:00.850Z,5
2017-06-14T03:00:02.078Z,5
2017-06-14T03:01:03.359Z,5
2017-06-14T03:02:04.589Z,5
2017-06-14T03:03:05.825Z,5
2017-06-14T03:04:07.077Z,10
2017-06-14T03:05:08.378Z,10
2017-06-14T03:06:09.621Z,10
2017-06-14T03:07:10.860Z,10
2017-06-14T03:08:12.091Z,10
2017-06-14T03:09:13.356Z,10
2017-06-14T03:10:14.714Z,15
2017-06-14T03:11:16.087Z,15
2017-06-14T03:12:17.339Z,15
2017-06-14T03:13:18.576Z,15
2017-06-14T03:14:19.815Z,15
2017-06-14T03:15:21.066Z,20
2017-06-14T03:16:22.312Z,20
2017-06-14T03:17:23.612Z,20
2017-06-14T03:18:24.863Z,25
2017-06-14T03:19:26.104Z,25
2017-06-14T03:20:27.347Z,25
2017-06-14T03:21:28.608Z,30
2017-06-14T03:22:29.907Z,30
2017-06-14T03:23:31.143Z,30
2017-06-14T03:24:32.393Z,30
2017-06-14T03:25:33.652Z,35
2017-06-14T03:26:34.893Z,35
2017-06-14T03:27:36.126Z,35
2017-06-14T03:28:37.379Z,40
2017-06-14T03:29:38.628Z,40
2017-06-14T03:30:39.907Z,40
2017-06-14T03:31:41.176Z,45
2017-06-14T03:32:42.431Z,45
2017-06-14T03:33:43.714Z,45
2017-06-14T03:34:45.057Z,50
2017-06-14T03:35:46.318Z,50
2017-06-14T03:36:47.554Z,55
2017-06-14T03:37:48.807Z,55
2017-06-14T03:38:50.056Z,55
2017-06-14T03:39:51.380Z,55
2017-06-14T03:40:52.623Z,60
2017-06-14T03:41:53.928Z,60
2017-06-14T03:42:55.177Z,60
2017-06-14T03:43:56.420Z,65
2017-06-14T03:44:57.805Z,65
2017-06-14T03:45:59.133Z,65
2017-06-14T03:47:00.433Z,65
2017-06-14T03:48:01.798Z,70
2017-06-14T03:49:03.028Z,70
2017-06-14T03:50:04.308Z,70
2017-06-14T03:51:05.531Z,75
2017-06-14T03:52:06.777Z,75
2017-06-14T03:53:08.140Z,75
2017-06-14T03:54:09.450Z,75
2017-06-14T03:55:10.685Z,75
2017-06-14T03:56:11.941Z,80
2017-06-14T03:57:13.261Z,80
2017-06-14T03:58:14.520Z,80
2017-06-14T03:59:15.752Z,85
2017-06-14T04:00:17.035Z,85
2017-06-14T04:01:18.262Z,85
2017-06-14T04:02:19.508Z,100
2017-06-14T04:03:20.778Z,110
2017-06-14T04:04:22.008Z,115
2017-06-14T04:05:23.316Z,105
2017-06-14T04:06:24.586Z,110
2017-06-14T04:07:25.824Z,105
2017-06-14T04:08:27.035Z,100
2017-06-14T04:09:28.291Z,100
2017-06-14T04:10:29.534Z,105
2017-06-14T04:11:30.803Z,110
2017-06-14T04:12:32.053Z,105
2017-06-14T04:13:33.297Z,100
2017-06-14T04:14:34.537Z,100
2017-06-14T04:15:35.777Z,100
2017-06-14T04:16:37.027Z,105
2017-06-14T04:17:38.319Z,110
2017-06-14T04:18:39.568Z,115
2017-06-14T04:19:40.788Z,115
2017-06-14T04:20:42.042Z,115
2017-06-14T04:21:43.327Z,120
2017-06-14T04:22:44.564Z,120
2017-06-14T04:23:45.806Z,120
2017-06-14T04:24:47.060Z,135
2017-06-14T04:25:48.399Z,140
2017-06-14T04:26:49.642Z,135
2017-06-14T04:27:50.881Z,130
2017-06-14T04:28:52.122Z,125
2017-06-14T04:29:53.355Z,130
2017-06-14T04:30:54.600Z,130
2017-06-14T04:31:55.855Z,135
2017-06-14T04:32:57.218Z,140
2017-06-14T04:33:58.453Z,145
2017-06-14T04:34:59.704Z,150
2017-06-14T04:36:00.963Z,155
2017-06-14T04:37:02.322Z,165
2017-06-14T04:38:03.591Z,170
2017-06-14T04:39:04.884Z,160
2017-06-14T04:40:06.134Z,150
2017-06-14T04:41:07.381Z,145
2017-06-14T04:42:08.619Z,145
2017-06-14T04:43:09.915Z,140
2017-06-14T04:44:11.165Z,140
2017-06-14T04:45:12.408Z,145
2017-06-14T04:46:13.657Z,145
2017-06-14T04:47:14.908Z,150
2017-06-14T04:48:16.169Z,150
2017-06-14T04:49:17.400Z,150
2017-06-14T04:50:18.654Z,150
2017-06-14T04:51:19.980Z,155
2017-06-14T04:52:21.271Z,155
2017-06-14T04:53:22.525Z,180
2017-06-14T04:54:23.858Z,215
2017-06-14T04:55:25.194Z,260
2017-06-14T04:56:26.484Z,255
2017-06-14T04:57:27.723Z,220
2017-06-14T04:58:28.958Z,215
2017-06-14T04:59:30.196Z,210
2017-06-14T05:00:31.570Z,235
2017-06-14T05:01:32.853Z,275
2017-06-14T05:02:34.128Z,250
2017-06-14T05:03:35.360Z,205
2017-06-14T05:04:36.627Z,190
2017-06-14T05:05:37.869Z,185
2017-06-14T05:06:39.122Z,220
2017-06-14T05:07:40.357Z,275
2017-06-14T05:08:41.704Z,355
2017-06-14T05:09:43.020Z,435
2017-06-14T05:10:44.278Z,405
2017-06-14T05:11:45.514Z,290
2017-06-14T05:12:46.763Z,275
2017-06-14T05:13:48.033Z,285
2017-06-14T05:14:49.264Z,280
2017-06-14T05:15:50.524Z,320
2017-06-14T05:16:51.914Z,295
2017-06-14T05:17:53.141Z,305
2017-06-14T05:18:54.433Z,350
2017-06-14T05:19:55.661Z,350
2017-06-14T05:20:56.922Z,340
2017-06-14T05:21:58.207Z,330
2017-06-14T05:22:59.553Z,300
2017-06-14T05:24:00.805Z,265
2017-06-14T05:25:02.048Z,270
2017-06-14T05:26:03.333Z,285
2017-06-14T05:27:04.647Z,245
2017-06-14T05:28:05.875Z,220
2017-06-14T05:29:07.120Z,220
2017-06-14T05:30:08.359Z,235
2017-06-14T05:31:09.716Z,265
2017-06-14T05:32:10.969Z,270
2017-06-14T05:33:12.297Z,270
2017-06-14T05:34:13.577Z,305
2017-06-14T05:35:14.832Z,330
2017-06-14T05:36:16.092Z,380
2017-06-14T05:37:17.375Z,630
2017-06-14T05:38:18.614Z,925
2017-06-14T05:39:19.863Z,1045
2017-06-14T05:40:21.278Z,1055
2017-06-14T05:41:22.525Z,1070
2017-06-14T05:42:23.780Z,1085
2017-06-14T05:43:25.035Z,1100
2017-06-14T05:44:26.312Z,1095
2017-06-14T05:45:27.597Z,1120
2017-06-14T05:46:28.856Z,1145
2017-06-14T05:47:30.119Z,1155
2017-06-14T05:48:31.424Z,1155
2017-06-14T05:49:32.705Z,1175
2017-06-14T05:50:33.963Z,1195
2017-06-14T05:51:35.231Z,1190
2017-06-14T05:52:36.478Z,1230
2017-06-14T05:53:37.749Z,1250
2017-06-14T05:54:39.010Z,1270
2017-06-14T05:55:40.274Z,1265
2017-06-14T05:56:41.507Z,1250
2017-06-14T05:57:42.783Z,1275
2017-06-14T05:58:44.071Z,1310
2017-06-14T05:59:45.322Z,1315
2017-06-14T06:00:46.578Z,1320
2017-06-14T06:01:47.859Z,1355
2017-06-14T06:02:49.133Z,1380
2017-06-14T06:03:50.410Z,1395
2017-06-14T06:04:51.762Z,1420
2017-06-14T06:05:53.030Z,1455
2017-06-14T06:06:54.290Z,1470
2017-06-14T06:07:55.574Z,1460
2017-06-14T06:08:56.860Z,1475
2017-06-14T06:09:58.070Z,1480
2017-06-14T06:10:59.330Z,1500
2017-06-14T06:12:00.575Z,1515
2017-06-14T06:13:01.841Z,1515
2017-06-14T06:14:03.098Z,1540
2017-06-14T06:15:04.394Z,1560
2017-06-14T06:16:05.651Z,1605
2017-06-14T06:17:06.942Z,1620
2017-06-14T06:18:08.215Z,1650
2017-06-14T06:19:09.474Z,1640
2017-06-14T06:20:10.743Z,1620
2017-06-14T06:21:12.000Z,1655
2017-06-14T06:22:13.255Z,1705
2017-06-14T06:23:14.535Z,1700
2017-06-14T06:24:15.803Z,1735
2017-06-14T06:25:17.063Z,1745
2017-06-14T06:26:18.321Z,1750
2017-06-14T06:27:19.583Z,1790
2017-06-14T06:28:20.874Z,1815
2017-06-14T06:29:22.123Z,1835
2017-06-14T06:30:23.389Z,1840
2017-06-14T06:31:24.651Z,1870
2017-06-14T06:32:25.907Z,1880
2017-06-14T06:33:27.180Z,1895
2017-06-14T06:34:28.427Z,1940
2017-06-14T06:35:29.686Z,1975
2017-06-14T06:36:30.940Z,1975
2017-06-14T06:37:32.217Z,1985
2017-06-14T06:38:33.469Z,2000
2017-06-14T06:39:34.722Z,2025
2017-06-14T06:40:35.986Z,2085
2017-06-14T06:41:37.239Z,2140
2017-06-14T06:42:38.512Z,2180
2017-06-14T06:43:39.772Z,2160
2017-06-14T06:44:41.028Z,2110
2017-06-14T06:45:42.329Z,2110
2017-06-14T06:46:43.647Z,2205
2017-06-14T06:47:44.937Z,2225
2017-06-14T06:48:46.194Z,2235
2017-06-14T06:49:47.443Z,2305
2017-06-14T06:50:48.693Z,2330
2017-06-14T06:51:49.943Z,2320
2017-06-14T06:52:51.302Z,2335
2017-06-14T06:53:52.529Z,2320
2017-06-14T06:54:53.794Z,2380
2017-06-14T06:55:55.042Z,2380
2017-06-14T06:56:56.292Z,2355
2017-06-14T06:57:57.550Z,2285
2017-06-14T06:58:58.921Z,2220
2017-06-14T07:00:00.174Z,2280
2017-06-14T07:01:01.436Z,2160
2017-06-14T07:02:02.695Z,2030
2017-06-14T07:03:03.945Z,2020
2017-06-14T07:04:05.205Z,2080
2017-06-14T07:05:06.450Z,1730
2017-06-14T07:06:07.744Z,1720
2017-06-14T07:07:09.020Z,1565
2017-06-14T07:08:10.264Z,1525
2017-06-14T07:09:11.555Z,1800
2017-06-14T07:10:12.779Z,1815
2017-06-14T07:11:14.058Z,1750
2017-06-14T07:12:15.295Z,1810
2017-06-14T07:13:16.551Z,1950
2017-06-14T07:14:17.832Z,2080
2017-06-14T07:15:19.086Z,2205
2017-06-14T07:16:20.330Z,2380
2017-06-14T07:17:21.599Z,2420
2017-06-14T07:18:22.860Z,2645
2017-06-14T07:19:24.135Z,2610
2017-06-14T07:20:25.426Z,2610
2017-06-14T07:21:26.659Z,2205
2017-06-14T07:22:27.946Z,2205
2017-06-14T07:23:29.235Z,2155
2017-06-14T07:24:30.494Z,2515
2017-06-14T07:25:31.753Z,2530
2017-06-14T07:26:33.010Z,2585
2017-06-14T07:27:34.273Z,2665
2017-06-14T07:28:35.527Z,2725
2017-06-14T07:29:36.816Z,2705
2017-06-14T07:30:38.100Z,2675
2017-06-14T07:31:39.356Z,2650
2017-06-14T07:32:40.651Z,2690
2017-06-14T07:33:41.895Z,2735
2017-06-14T07:34:43.275Z,2640
2017-06-14T07:35:44.557Z,2680
2017-06-14T07:36:45.881Z,2730
2017-06-14T07:37:47.168Z,2640
2017-06-14T07:38:48.405Z,2705
2017-06-14T07:39:49.652Z,2535
2017-06-14T07:40:50.910Z,2580
2017-06-14T07:41:52.178Z,2675
2017-06-14T07:42:53.441Z,2665
2017-06-14T07:43:54.710Z,2485
2017-06-14T07:44:55.945Z,2625
2017-06-14T07:45:57.197Z,2660
2017-06-14T07:46:58.469Z,2660
2017-06-14T07:47:59.720Z,2725
2017-06-14T07:49:01.003Z,2790
2017-06-14T07:50:02.274Z,2800
2017-06-14T07:51:03.555Z,2910
2017-06-14T07:52:04.804Z,3015
2017-06-14T07:53:06.083Z,2985
2017-06-14T07:54:07.338Z,2985
2017-06-14T07:55:08.627Z,2960
2017-06-14T07:56:09.887Z,3030
2017-06-14T07:57:11.145Z,3010
2017-06-14T07:58:12.393Z,3030
2017-06-14T07:59:13.661Z,2970
2017-06-14T08:00:14.930Z,2875
2017-06-14T08:01:16.501Z,2945
2017-06-14T08:02:17.799Z,3040
2017-06-14T08:03:19.103Z,3065
2017-06-14T08:04:20.362Z,3120
2017-06-14T08:05:21.622Z,2965
2017-06-14T08:06:22.943Z,2985
2017-06-14T08:07:24.243Z,2995
2017-06-14T08:08:25.519Z,2905
2017-06-14T08:09:26.783Z,3010
2017-06-14T08:10:28.028Z,3080
2017-06-14T08:11:29.288Z,3130
2017-06-14T08:12:30.556Z,3160
2017-06-14T08:13:31.869Z,3175
2017-06-14T08:14:33.111Z,3170
2017-06-14T08:15:34.390Z,3130
2017-06-14T08:16:35.688Z,3165
2017-06-14T08:17:36.948Z,3150
2017-06-14T08:18:38.282Z,3210
2017-06-14T08:19:39.552Z,3085
2017-06-14T08:20:40.811Z,3050
2017-06-14T08:21:42.054Z,3160
2017-06-14T08:22:43.334Z,3150
2017-06-14T08:23:44.580Z,3070
2017-06-14T08:24:45.899Z,3130
2017-06-14T08:25:47.151Z,3250
2017-06-14T08:26:48.412Z,3205
2017-06-14T08:27:49.700Z,3195
2017-06-14T08:28:51.065Z,3100
2017-06-14T08:29:52.288Z,3050
2017-06-14T08:30:53.596Z,3120
2017-06-14T08:31:54.866Z,3075
2017-06-14T08:32:56.135Z,3015
2017-06-14T08:33:57.406Z,3205
2017-06-14T08:34:58.653Z,3205
2017-06-14T08:35:59.938Z,3305
2017-06-14T08:37:01.195Z,3325
2017-06-14T08:38:02.461Z,3220
2017-06-14T08:39:03.731Z,3070
2017-06-14T08:40:04.984Z,3050
2017-06-14T08:41:06.255Z,3210
2017-06-14T08:42:07.522Z,3185
2017-06-14T08:43:08.811Z,3050
2017-06-14T08:44:10.088Z,2995
2017-06-14T08:45:11.329Z,3160
2017-06-14T08:46:12.594Z,3280
2017-06-14T08:47:13.877Z,3280
2017-06-14T08:48:15.187Z,3315
2017-06-14T08:49:16.429Z,3235
2017-06-14T08:50:17.839Z,3255
2017-06-14T08:51:19.106Z,3240
2017-06-14T08:52:20.366Z,3305
2017-06-14T08:53:21.725Z,3410
2017-06-14T08:54:22.973Z,3340
2017-06-14T08:55:24.261Z,3345
2017-06-14T08:56:25.542Z,3445
2017-06-14T08:57:26.804Z,3510
2017-06-14T08:58:28.065Z,3555
2017-06-14T08:59:29.402Z,3660
2017-06-14T09:00:30.658Z,3690
2017-06-14T09:01:31.919Z,3690
2017-06-14T09:02:33.180Z,3660
2017-06-14T09:03:34.445Z,3585
2017-06-14T09:04:35.771Z,3395
2017-06-14T09:05:37.054Z,3395
2017-06-14T09:06:38.317Z,3460
2017-06-14T09:07:39.578Z,3600
2017-06-14T09:08:40.841Z,3625
2017-06-14T09:09:42.121Z,3635
2017-06-14T09:10:43.383Z,3600
2017-06-14T09:11:44.652Z,3640
2017-06-14T09:12:45.942Z,3580
2017-06-14T09:13:47.206Z,3490
2017-06-14T09:14:48.455Z,3600
2017-06-14T09:15:49.750Z,3545
2017-06-14T09:16:50.985Z,3685
2017-06-14T09:17:52.271Z,3755
2017-06-14T09:18:53.563Z,3500
2017-06-14T09:19:54.818Z,3540
2017-06-14T09:20:56.085Z,3605
2017-06-14T09:21:57.368Z,3555
2017-06-14T09:22:58.684Z,3825
2017-06-14T09:23:59.976Z,4080
2017-06-14T09:25:01.226Z,3995
2017-06-14T09:26:02.522Z,3945
2017-06-14T09:27:03.797Z,3970
2017-06-14T09:28:05.068Z,4075
2017-06-14T09:29:06.343Z,4095
2017-06-14T09:30:07.649Z,3925
2017-06-14T09:31:08.913Z,3650
2017-06-14T09:32:10.242Z,3550
2017-06-14T09:33:11.503Z,3565
2017-06-14T09:34:12.775Z,3760
2017-06-14T09:35:14.079Z,3965
2017-06-14T09:36:15.471Z,3905
2017-06-14T09:37:16.738Z,3790
2017-06-14T09:38:18.017Z,3950
2017-06-14T09:39:19.296Z,3765
2017-06-14T09:40:20.541Z,3925
2017-06-14T09:41:21.834Z,3720
2017-06-14T09:42:23.251Z,3365
2017-06-14T09:43:24.512Z,3255
2017-06-14T09:44:25.813Z,3455
2017-06-14T09:45:27.084Z,3835
2017-06-14T09:46:28.347Z,4040
2017-06-14T09:47:29.764Z,4050
2017-06-14T09:48:31.079Z,3865
2017-06-14T09:49:32.344Z,3835
2017-06-14T09:50:33.628Z,4110
2017-06-14T09:51:34.886Z,4065
2017-06-14T09:52:36.165Z,4000
2017-06-14T09:53:37.510Z,3955
2017-06-14T09:54:38.740Z,3845
2017-06-14T09:55:40.051Z,3690
2017-06-14T09:56:41.299Z,3765
2017-06-14T09:57:42.778Z,3980
2017-06-14T09:58:44.289Z,4245
2017-06-14T09:59:45.609Z,4260
2017-06-14T10:00:46.889Z,4005
2017-06-14T10:01:48.178Z,4195
2017-06-14T10:02:49.514Z,4200
2017-06-14T10:03:50.786Z,4100
2017-06-14T10:04:52.100Z,3770
2017-06-14T10:05:53.349Z,4020
2017-06-14T10:06:54.616Z,4255
2017-06-14T10:07:55.888Z,3865
2017-06-14T10:08:57.164Z,3615
2017-06-14T10:09:58.449Z,3680
2017-06-14T10:10:59.727Z,3665
2017-06-14T10:12:00.973Z,3235
2017-06-14T10:13:02.242Z,2930
2017-06-14T10:14:03.515Z,2920
2017-06-14T10:15:04.784Z,3255
2017-06-14T10:16:06.049Z,3395
2017-06-14T10:17:07.320Z,3315
2017-06-14T10:18:08.587Z,3200
2017-06-14T10:19:09.850Z,3150
2017-06-14T10:20:11.142Z,3340
2017-06-14T10:21:12.380Z,3390
2017-06-14T10:22:13.739Z,3365
2017-06-14T10:23:15.014Z,3480
2017-06-14T10:24:16.326Z,3420
2017-06-14T10:25:17.621Z,3390
2017-06-14T10:26:18.886Z,3170
2017-06-14T10:27:20.124Z,3255
2017-06-14T10:28:21.393Z,3510
2017-06-14T10:29:22.648Z,3455
2017-06-14T10:30:23.961Z,3320
2017-06-14T10:31:25.216Z,3265
2017-06-14T10:32:26.484Z,3380
2017-06-14T10:33:27.742Z,3235
2017-06-14T10:34:29.070Z,1770
2017-06-14T10:35:30.414Z,475
2017-06-14T10:36:31.673Z,395
2017-06-14T10:37:32.933Z,360
2017-06-14T10:38:34.191Z,345
2017-06-14T10:39:35.448Z,330
2017-06-14T10:40:36.715Z,320
2017-06-14T10:41:37.984Z,315
2017-06-14T10:42:39.261Z,300
2017-06-14T10:43:40.527Z,295
2017-06-14T10:44:41.938Z,295
2017-06-14T10:45:43.232Z,290
2017-06-14T10:46:44.500Z,285
2017-06-14T10:47:45.792Z,285
2017-06-14T10:48:47.048Z,285
2017-06-14T10:49:48.320Z,290
2017-06-14T10:50:49.652Z,290
2017-06-14T10:51:50.911Z,285
2017-06-14T10:52:52.228Z,290
2017-06-14T10:53:53.485Z,290
2017-06-14T10:54:54.724Z,290
2017-06-14T10:55:55.977Z,285
2017-06-14T10:56:57.240Z,285
2017-06-14T10:57:58.591Z,285
2017-06-14T10:58:59.874Z,280
2017-06-14T11:00:01.120Z,280
2017-06-14T11:01:02.368Z,280
2017-06-14T11:02:03.633Z,275
2017-06-14T11:03:05.088Z,280
2017-06-14T11:04:06.327Z,280
2017-06-14T11:05:07.624Z,285
2017-06-14T11:06:08.852Z,290
2017-06-14T11:07:10.156Z,290
2017-06-14T11:08:11.413Z,290
2017-06-14T11:09:12.708Z,290
2017-06-14T11:10:14.048Z,290
2017-06-14T11:11:15.282Z,295
2017-06-14T11:12:16.558Z,290
2017-06-14T11:13:17.827Z,295
2017-06-14T11:14:19.104Z,295
2017-06-14T11:15:20.370Z,295
2017-06-14T11:16:21.669Z,295
2017-06-14T11:17:22.926Z,290
2017-06-14T11:18:24.194Z,290
2017-06-14T11:19:25.448Z,290
2017-06-14T11:20:26.695Z,290
2017-06-14T11:21:28.067Z,290
2017-06-14T11:22:29.335Z,290
2017-06-14T11:23:30.573Z,290
2017-06-14T11:24:31.839Z,290
2017-06-14T11:25:33.098Z,285
2017-06-14T11:26:34.379Z,280
2017-06-14T11:27:35.640Z,280
2017-06-14T11:28:36.887Z,275
2017-06-14T11:29:38.147Z,275
2017-06-14T11:30:39.402Z,280
2017-06-14T11:31:40.661Z,280
2017-06-14T11:32:41.922Z,280
2017-06-14T11:33:43.169Z,285
2017-06-14T11:34:44.452Z,280
2017-06-14T11:35:45.709Z,275
2017-06-14T11:36:46.977Z,270
2017-06-14T11:37:48.213Z,265
2017-06-14T11:38:49.476Z,265
2017-06-14T11:39:50.731Z,255
2017-06-14T11:40:52.026Z,255
2017-06-14T11:41:53.335Z,250
2017-06-14T11:42:54.564Z,250
2017-06-14T11:43:55.862Z,245
2017-06-14T11:44:57.116Z,245
2017-06-14T11:45:58.375Z,245
2017-06-14T11:46:59.628Z,245
2017-06-14T11:48:00.879Z,245
2017-06-14T11:49:02.262Z,245
2017-06-14T11:50:03.531Z,245
2017-06-14T11:51:04.765Z,245
2017-06-14T11:52:06.024Z,245
2017-06-14T11:53:07.363Z,245
2017-06-14T11:54:08.623Z,245
2017-06-14T11:55:09.868Z,245
2017-06-14T11:56:11.117Z,250
2017-06-14T11:57:12.371Z,245
2017-06-14T11:58:13.692Z,245
2017-06-14T11:59:14.957Z,245
2017-06-14T12:00:16.243Z,245
2017-06-14T12:01:17.498Z,245
2017-06-14T12:02:18.784Z,245
2017-06-14T12:03:20.023Z,250
2017-06-14T12:04:21.285Z,245
2017-06-14T12:05:22.559Z,245
2017-06-14T12:06:23.823Z,240
2017-06-14T12:07:25.071Z,240
2017-06-14T12:08:26.331Z,235
2017-06-14T12:09:27.597Z,235
2017-06-14T12:10:28.849Z,230
2017-06-14T12:11:30.247Z,235
2017-06-14T12:12:31.519Z,235
2017-06-14T12:13:32.773Z,235
2017-06-14T12:14:34.039Z,235
2017-06-14T12:15:35.411Z,235
2017-06-14T12:16:36.577Z,235
2017-06-14T12:17:37.814Z,230
2017-06-14T12:18:39.108Z,240
2017-06-14T12:19:40.387Z,235
2017-06-14T12:20:41.727Z,235
2017-06-14T12:21:42.977Z,230
2017-06-14T12:22:44.235Z,230
2017-06-14T12:23:45.482Z,230
2017-06-14T12:24:46.727Z,230
2017-06-14T12:25:47.997Z,225
2017-06-14T12:26:49.255Z,225
2017-06-14T12:27:50.523Z,225
2017-06-14T12:28:51.774Z,225
2017-06-14T12:29:53.050Z,220
2017-06-14T12:30:54.312Z,220
2017-06-14T12:31:55.655Z,220
2017-06-14T12:32:56.900Z,220
2017-06-14T12:33:58.149Z,225
2017-06-14T12:34:59.445Z,220
2017-06-14T12:36:00.695Z,215
2017-06-14T12:37:01.944Z,215
2017-06-14T12:38:03.193Z,215
2017-06-14T12:39:04.460Z,210
2017-06-14T12:40:05.723Z,210
2017-06-14T12:41:06.980Z,210
2017-06-14T12:42:08.306Z,210
2017-06-14T12:43:09.580Z,210
2017-06-14T12:44:10.805Z,210
2017-06-14T12:45:12.064Z,210
2017-06-14T12:46:13.349Z,215
2017-06-14T12:47:14.604Z,210
2017-06-14T12:48:15.845Z,210
2017-06-14T12:49:17.097Z,215
2017-06-14T12:50:18.352Z,220
2017-06-14T12:51:19.621Z,220
2017-06-14T12:52:20.933Z,225
2017-06-14T12:53:22.211Z,225
2017-06-14T12:54:23.523Z,220
2017-06-14T12:55:24.779Z,220
2017-06-14T12:56:26.154Z,220
2017-06-14T12:57:27.418Z,225
2017-06-14T12:58:28.662Z,225
2017-06-14T12:59:29.945Z,225
2017-06-14T13:00:31.210Z,225
2017-06-14T13:01:32.499Z,220
2017-06-14T13:02:33.746Z,220
2017-06-14T13:03:35.034Z,220
2017-06-14T13:04:36.276Z,220
2017-06-14T13:05:37.603Z,220
2017-06-14T13:06:38.864Z,225
2017-06-14T13:07:40.129Z,220
2017-06-14T13:08:41.397Z,220
2017-06-14T13:09:42.641Z,220
2017-06-14T13:10:43.931Z,220
2017-06-14T13:11:45.235Z,220
2017-06-14T13:12:46.504Z,220
2017-06-14T13:13:47.929Z,220
2017-06-14T13:14:49.178Z,220
2017-06-14T13:15:50.440Z,220
2017-06-14T13:16:51.730Z,225
2017-06-14T13:17:52.953Z,230
2017-06-14T13:18:54.198Z,220
2017-06-14T13:19:55.453Z,225
2017-06-14T13:20:56.704Z,220
2017-06-14T13:21:57.953Z,225
2017-06-14T13:22:59.271Z,225
2017-06-14T13:24:00.543Z,225
2017-06-14T13:25:01.806Z,225
2017-06-14T13:26:03.050Z,225
2017-06-14T13:27:04.311Z,220
2017-06-14T13:28:05.683Z,220
2017-06-14T13:29:06.929Z,220
2017-06-14T13:30:08.242Z,220
2017-06-14T13:31:09.511Z,215
2017-06-14T13:32:10.740Z,215
2017-06-14T13:33:12.075Z,220
2017-06-14T13:34:13.336Z,215
2017-06-14T13:35:14.642Z,215
2017-06-14T13:36:15.890Z,215
2017-06-14T13:37:17.167Z,210
2017-06-14T13:38:18.426Z,210
2017-06-14T13:39:19.695Z,205
2017-06-14T13:40:20.938Z,205
2017-06-14T13:41:22.223Z,210
2017-06-14T13:42:23.612Z,205
2017-06-14T13:43:24.881Z,205
2017-06-14T13:44:26.138Z,200
2017-06-14T13:45:27.408Z,200
2017-06-14T13:46:28.636Z,195
2017-06-14T13:47:29.897Z,195
2017-06-14T13:48:31.140Z,195
2017-06-14T13:49:32.397Z,190
2017-06-14T13:50:33.648Z,190
2017-06-14T13:51:34.913Z,185
2017-06-14T13:52:36.161Z,180
2017-06-14T13:53:37.426Z,180
2017-06-14T13:54:38.662Z,180
2017-06-14T13:55:39.913Z,180
2017-06-14T13:56:41.187Z,180
2017-06-14T13:57:42.449Z,180
2017-06-14T13:58:43.774Z,180
2017-06-14T13:59:45.032Z,180
2017-06-14T14:00:46.276Z,180
2017-06-14T14:01:47.570Z,180
2017-06-14T14:02:48.837Z,180
2017-06-14T14:03:50.175Z,175
2017-06-14T14:04:51.581Z,175
2017-06-14T14:05:52.733Z,175
2017-06-14T14:06:54.127Z,175
2017-06-14T14:07:55.434Z,175